Pio Ix, Brazil
Current Conditions -  °F | °C
As of 3:00 PM on Thursday 30 Oct 2014 (Local Time) from SBJU Reporting Station
Scattered Clouds Scattered Clouds  
Wind Chill: 97°   Ceiling: Unl
Heat Index: 97°   Visibility: 6mi
Dew Point: 61°   Wind: 5mph
Humidity: 30%   Direction: 80°E
Pressure: 29.91"   Gusts: NA
Location:  6.84°S, 40.61°W
Report Text: SBJU 301800Z 08004KT 9999 SCT020 36/16 Q1013
Loading
Personal Weather Stations






























Interactive Weather Map
Tropical Storm Tracking
New forecast layout! Learn more

10-Day Weather Forecast

Advertisements
Track Severe Weather on mobile